createdAt,value
2023-02-05T00:04:15.538Z,91.90
2023-02-05T00:09:18.562Z,91.80
2023-02-05T00:14:22.647Z,91.80
2023-02-05T00:19:43.057Z,91.60
2023-02-05T00:24:46.427Z,91.90
2023-02-05T00:29:49.438Z,92.10
2023-02-05T00:34:52.496Z,92.20
2023-02-05T00:39:55.551Z,92.50
2023-02-05T00:44:58.387Z,92.60
2023-02-05T00:50:01.662Z,93.00
2023-02-05T00:55:05.276Z,93.10
2023-02-05T01:00:09.278Z,93.40
2023-02-05T01:05:12.763Z,93.50
2023-02-05T01:10:16.418Z,93.70
2023-02-05T01:15:20.060Z,93.70
2023-02-05T01:20:22.863Z,93.90
2023-02-05T01:25:25.886Z,94.10
2023-02-05T01:30:28.678Z,94.30
2023-02-05T01:35:32.637Z,94.50
2023-02-05T01:40:35.890Z,94.90
2023-02-05T01:45:50.876Z,95.10
2023-02-05T01:50:59.685Z,95.20
2023-02-05T01:56:20.117Z,95.40
2023-02-05T02:01:24.767Z,95.70
2023-02-05T02:06:27.747Z,95.80
2023-02-05T02:11:36.647Z,95.70
2023-02-05T02:16:40.767Z,95.90
2023-02-05T02:22:28.008Z,95.70
2023-02-05T02:27:45.941Z,95.70
2023-02-05T02:33:21.605Z,95.80
2023-02-05T02:38:34.264Z,96.10
2023-02-05T02:43:54.756Z,96.50
2023-02-05T02:49:05.293Z,97.20
2023-02-05T02:54:14.056Z,97.50
2023-02-05T02:59:28.659Z,98.20
2023-02-05T03:04:39.081Z,98.30
2023-02-05T03:09:56.893Z,98.60
2023-02-05T03:15:00.580Z,99.00
2023-02-05T03:20:19.338Z,99.50
2023-02-05T03:25:25.276Z,99.70
2023-02-05T03:30:57.245Z,99.90
2023-02-05T03:36:49.052Z,99.90
2023-02-05T03:42:06.955Z,99.90
2023-02-05T03:47:19.432Z,99.90
2023-02-05T03:52:55.387Z,99.90
2023-02-05T03:58:10.641Z,99.90
2023-02-05T04:03:15.410Z,99.90
2023-02-05T04:08:18.398Z,99.90
2023-02-05T04:13:21.359Z,99.90
2023-02-05T04:18:24.487Z,99.90
2023-02-05T04:23:27.472Z,99.90
2023-02-05T04:28:30.921Z,99.90
2023-02-05T04:33:33.891Z,99.90
2023-02-05T04:38:37.018Z,99.90
2023-02-05T04:43:39.966Z,99.90
2023-02-05T04:48:42.980Z,99.90
2023-02-05T04:53:45.687Z,99.90
2023-02-05T04:58:48.559Z,99.90
2023-02-05T05:03:51.763Z,99.90
2023-02-05T05:08:54.774Z,99.90
2023-02-05T05:13:58.203Z,99.90
2023-02-05T05:19:01.206Z,99.90
2023-02-05T05:24:04.516Z,99.90
2023-02-05T05:29:07.670Z,99.90
2023-02-05T05:34:10.689Z,99.90
2023-02-05T05:39:33.467Z,99.90
2023-02-05T05:44:36.270Z,99.90
2023-02-05T05:49:39.225Z,99.90
2023-02-05T05:54:42.272Z,99.90
2023-02-05T05:59:45.263Z,99.90
2023-02-05T06:04:48.450Z,99.90
2023-02-05T06:09:51.501Z,99.90
2023-02-05T06:14:54.223Z,99.90
2023-02-05T06:19:57.255Z,99.90
2023-02-05T06:25:00.255Z,99.90
2023-02-05T06:30:04.455Z,99.90
2023-02-05T06:35:07.935Z,99.90
2023-02-05T06:40:11.521Z,99.90
2023-02-05T06:45:14.948Z,99.90
2023-02-05T06:50:18.028Z,99.90
2023-02-05T06:55:21.418Z,99.90
2023-02-05T07:00:24.555Z,99.90
2023-02-05T07:05:27.363Z,99.90
2023-02-05T07:10:30.649Z,99.90
2023-02-05T07:15:37.707Z,99.50
2023-02-05T07:20:40.727Z,99.50
2023-02-05T07:25:43.595Z,99.80
2023-02-05T07:30:47.901Z,99.90
2023-02-05T07:35:50.641Z,99.90
2023-02-05T07:40:53.571Z,98.40
2023-02-05T07:46:02.469Z,98.20
2023-02-05T07:51:07.054Z,98.00
2023-02-05T07:56:10.064Z,94.70
2023-02-05T08:01:13.122Z,93.60
2023-02-05T08:06:16.697Z,92.50
2023-02-05T08:11:20.075Z,91.30
2023-02-05T08:16:22.865Z,92.40
2023-02-05T08:21:26.006Z,90.00
2023-02-05T08:26:28.904Z,90.20
2023-02-05T08:31:32.683Z,88.70
2023-02-05T08:36:35.794Z,83.00
2023-02-05T08:41:38.932Z,82.60
2023-02-05T08:46:49.920Z,81.60
2023-02-05T08:51:53.296Z,76.00
2023-02-05T08:56:56.412Z,71.00
2023-02-05T09:01:59.631Z,75.70
2023-02-05T09:07:02.381Z,74.20
2023-02-05T09:12:06.085Z,72.80
2023-02-05T09:17:10.980Z,74.10
2023-02-05T09:22:14.008Z,70.60
2023-02-05T09:27:17.040Z,70.90
2023-02-05T09:32:20.033Z,69.80
2023-02-05T09:37:22.892Z,69.80
2023-02-05T09:42:52.029Z,70.80
2023-02-05T09:48:04.794Z,69.70
2023-02-05T09:53:13.481Z,68.40
2023-02-05T09:58:26.673Z,66.70
2023-02-05T10:03:42.975Z,69.20
2023-02-05T10:08:48.778Z,69.00
2023-02-05T10:14:17.286Z,68.70
2023-02-05T10:20:03.272Z,68.60
2023-02-05T10:25:09.585Z,66.60
2023-02-05T10:30:52.757Z,67.80
2023-02-05T10:36:06.861Z,68.10
2023-02-05T10:41:45.641Z,67.90
2023-02-05T10:46:54.089Z,68.20
2023-02-05T10:51:56.958Z,69.00
2023-02-05T10:57:00.876Z,68.10
2023-02-05T11:02:10.172Z,66.00
2023-02-05T11:07:26.331Z,64.80
2023-02-05T11:12:32.951Z,65.00
2023-02-05T11:17:38.031Z,62.60
2023-02-05T11:22:40.893Z,59.50
2023-02-05T11:27:56.864Z,57.80
2023-02-05T11:33:27.602Z,57.00
2023-02-05T11:38:57.193Z,58.50
2023-02-05T11:44:02.316Z,57.40
2023-02-05T11:49:05.711Z,56.90
2023-02-05T11:54:27.158Z,56.20
2023-02-05T11:59:32.334Z,55.20
2023-02-05T12:04:47.216Z,55.80
2023-02-05T12:09:53.069Z,56.00
2023-02-05T12:15:14.407Z,57.10
2023-02-05T12:20:23.374Z,57.30
2023-02-05T12:25:53.292Z,57.10
2023-02-05T12:31:12.147Z,57.00
2023-02-05T12:37:01.853Z,57.90
2023-02-05T12:42:11.973Z,58.70
2023-02-05T12:47:32.776Z,58.50
2023-02-05T12:53:27.654Z,58.80
2023-02-05T12:58:42.442Z,58.30
2023-02-05T13:03:51.582Z,58.60
2023-02-05T13:43:46.000Z,59.60
2023-02-05T13:49:50.706Z,59.60
2023-02-05T13:55:24.101Z,60.00
2023-02-05T14:00:28.381Z,60.10
2023-02-05T14:05:39.740Z,59.90
2023-02-05T14:10:45.670Z,60.00
2023-02-05T14:15:50.155Z,59.60
2023-02-05T14:20:53.090Z,59.50
2023-02-05T14:26:07.381Z,59.90
2023-02-05T14:31:47.794Z,60.10
2023-02-05T14:36:51.498Z,59.40
2023-02-05T14:41:59.270Z,59.80
2023-02-05T14:47:20.061Z,60.20
2023-02-05T14:52:22.865Z,60.30
2023-02-05T14:58:03.179Z,60.70
2023-02-05T15:03:06.189Z,60.60
2023-02-05T15:08:36.692Z,61.30
2023-02-05T15:13:40.396Z,61.20
2023-02-05T15:19:06.199Z,61.50
2023-02-05T15:24:24.124Z,61.90
2023-02-05T15:29:41.617Z,62.60
2023-02-05T15:34:51.210Z,62.80
2023-02-05T15:39:58.357Z,63.30
2023-02-05T15:45:45.209Z,63.60
2023-02-05T15:50:56.265Z,63.80
2023-02-05T15:56:13.077Z,64.30
2023-02-05T16:01:29.649Z,64.50
2023-02-05T16:06:37.006Z,65.20
2023-02-05T16:11:43.084Z,66.30
2023-02-05T16:17:04.495Z,67.10
2023-02-05T16:22:32.340Z,68.20
2023-02-05T16:27:46.386Z,68.50
2023-02-05T16:32:53.497Z,69.00
2023-02-05T16:37:57.544Z,69.50
2023-02-05T16:43:05.806Z,70.40
2023-02-05T16:48:27.156Z,70.20
2023-02-05T16:53:37.035Z,70.10
2023-02-05T16:58:53.870Z,70.40
2023-02-05T17:03:57.542Z,70.50
2023-02-05T17:09:01.134Z,70.60
2023-02-05T17:14:35.742Z,70.70
2023-02-05T17:19:38.791Z,70.50
2023-02-05T17:24:48.984Z,71.30
2023-02-05T17:29:52.081Z,71.60
2023-02-05T17:34:55.433Z,72.90
2023-02-05T17:39:58.211Z,73.20
2023-02-05T17:45:02.213Z,73.60
2023-02-05T17:50:05.720Z,74.50
2023-02-05T17:55:14.361Z,74.90
2023-02-05T18:00:27.613Z,75.40
2023-02-05T18:05:30.933Z,76.20
2023-02-05T18:10:34.178Z,76.80
2023-02-05T18:15:37.481Z,76.20
2023-02-05T18:20:40.418Z,79.70
2023-02-05T18:25:43.181Z,79.80
2023-02-05T18:30:46.391Z,79.70
2023-02-05T18:35:49.370Z,79.50
2023-02-05T18:40:52.652Z,80.20
2023-02-05T18:45:55.982Z,80.70
2023-02-05T18:50:58.878Z,80.30
2023-02-05T18:56:20.434Z,81.00
2023-02-05T19:01:23.592Z,80.30
2023-02-05T19:06:26.613Z,80.90
2023-02-05T19:11:30.974Z,81.30
2023-02-05T19:16:36.026Z,81.50
2023-02-05T19:21:39.154Z,81.50
2023-02-05T19:26:44.202Z,81.60
2023-02-05T19:31:48.198Z,81.90
2023-02-05T19:36:51.418Z,81.80
2023-02-05T19:41:56.086Z,82.30
2023-02-05T19:46:59.131Z,82.80
2023-02-05T19:52:02.078Z,83.00
2023-02-05T19:57:04.980Z,83.40
2023-02-05T20:02:12.759Z,83.90
2023-02-05T20:07:16.060Z,84.60
2023-02-05T20:12:19.276Z,84.70
2023-02-05T20:17:47.032Z,84.90
2023-02-05T20:23:08.798Z,85.00
2023-02-05T20:28:12.209Z,86.10
2023-02-05T20:33:15.340Z,86.50
2023-02-05T20:38:18.296Z,87.00
2023-02-05T20:43:21.787Z,88.20
2023-02-05T20:48:24.747Z,89.20
2023-02-05T20:53:27.791Z,89.10
2023-02-05T20:58:31.722Z,89.50
2023-02-05T21:03:36.884Z,89.80
2023-02-05T21:08:41.538Z,90.70
2023-02-05T21:13:46.625Z,91.10
2023-02-05T21:18:51.274Z,90.90
2023-02-05T21:24:01.320Z,91.10
2023-02-05T21:29:10.191Z,91.30
2023-02-05T21:34:27.177Z,91.60
2023-02-05T21:39:30.173Z,91.70
2023-02-05T21:44:33.121Z,92.30
2023-02-05T21:49:35.904Z,92.40
2023-02-05T21:54:39.183Z,92.50
2023-02-05T21:59:42.117Z,92.90
2023-02-05T22:04:45.102Z,93.00
2023-02-05T22:09:48.182Z,93.10
2023-02-05T22:14:51.087Z,93.40
2023-02-05T22:19:54.058Z,93.80
2023-02-05T22:24:57.673Z,93.90
2023-02-05T22:30:00.653Z,93.80
2023-02-05T22:35:04.657Z,94.00
2023-02-05T22:40:08.474Z,94.10
2023-02-05T22:45:11.815Z,94.20
2023-02-05T22:50:15.396Z,94.80
2023-02-05T22:55:18.618Z,96.10
2023-02-05T23:00:21.360Z,95.50
2023-02-05T23:05:26.869Z,95.50
2023-02-05T23:10:29.833Z,95.20
2023-02-05T23:15:33.291Z,95.90
2023-02-05T23:20:36.426Z,95.60
2023-02-05T23:25:39.588Z,95.90
2023-02-05T23:30:42.813Z,95.80
2023-02-05T23:35:45.893Z,96.00
2023-02-05T23:40:49.007Z,96.30
2023-02-05T23:45:54.155Z,97.20
2023-02-05T23:50:57.119Z,97.30
2023-02-05T23:56:00.902Z,97.30
